Time;durP1;ratioP1;P1;durP2;ratioP2;P2;SDS_P1;SDS_P2;PMS_P1;PMS_P2;Temp;Humidity;BMP_temperature;BMP_pressure;BME280_temperature;BME280_humidity;BME280_pressure;Samples;Min_cycle;Max_cycle;Signal;HPM_P1;HPM_P2
2023/03/08 00:01:31;;;;;;;40.87;25.23;;;;;;;9.14;77.92;98735.97;5119656;28;20207;-54
2023/03/08 00:03:58;;;;;;;49.13;28.03;;;;;;;9.11;77.85;98728.25;5115615;28;20172;-54
2023/03/08 00:06:26;;;;;;;37.77;25.10;;;;;;;9.08;77.77;98730.78;5099578;28;20179;-54
2023/03/08 00:08:55;;;;;;;32.40;21.73;;;;;;;9.02;77.64;98726.47;5099305;28;20190;-54
2023/03/08 00:11:23;;;;;;;36.57;24.90;;;;;;;9.00;77.73;98728.16;5099281;28;20184;-54
2023/03/08 00:13:50;;;;;;;39.63;24.77;;;;;;;9.06;77.72;98733.34;5099335;28;20175;-53
2023/03/08 00:16:17;;;;;;;36.27;25.63;;;;;;;9.03;77.54;98723.06;5099137;28;20226;-54
2023/03/08 00:18:44;;;;;;;38.27;26.10;;;;;;;9.08;77.52;98731.66;5099172;28;20178;-54
2023/03/08 00:21:12;;;;;;;41.90;25.93;;;;;;;9.12;77.47;98727.44;5099590;28;20205;-54
2023/03/08 00:23:40;;;;;;;38.13;25.03;;;;;;;9.11;77.59;98733.38;5098357;28;20217;-54
2023/03/08 00:26:06;;;;;;;37.30;25.30;;;;;;;9.11;77.44;98726.56;5098790;28;20168;-54
2023/03/08 00:28:34;;;;;;;38.73;25.73;;;;;;;9.09;77.52;98727.41;5097591;28;20203;-54
2023/03/08 00:31:03;;;;;;;32.93;25.13;;;;;;;9.12;77.70;98724.88;5098797;28;20218;-54
2023/03/08 00:33:31;;;;;;;43.63;26.27;;;;;;;8.85;77.66;98682.75;5098805;28;20167;-54
2023/03/08 00:36:00;;;;;;;40.27;24.93;;;;;;;9.03;77.75;98725.63;5098824;28;20199;-54
2023/03/08 00:38:30;;;;;;;38.10;26.43;;;;;;;9.05;78.21;98725.63;5112845;28;20179;-54
2023/03/08 00:40:56;;;;;;;43.83;27.30;;;;;;;9.01;78.11;98718.78;5119097;28;20187;-54
2023/03/08 00:43:23;;;;;;;41.57;27.37;;;;;;;8.86;79.02;98720.34;5117582;28;20221;-54
2023/03/08 00:45:51;;;;;;;43.83;27.70;;;;;;;8.85;79.23;98720.28;5098324;28;20180;-54
2023/03/08 00:48:18;;;;;;;39.37;27.97;;;;;;;8.80;79.60;98724.53;5098603;28;20199;-54
2023/03/08 00:50:45;;;;;;;40.23;27.53;;;;;;;8.76;79.80;98712.53;5098413;28;20203;-54
2023/03/08 00:53:12;;;;;;;40.70;27.70;;;;;;;8.75;79.72;98724.47;5098306;28;20245;-54
2023/03/08 00:55:39;;;;;;;42.97;29.27;;;;;;;8.77;79.89;98719.34;5098340;28;20179;-54
2023/03/08 00:58:06;;;;;;;41.58;32.40;;;;;;;8.85;79.79;98720.28;5097413;28;20426;-54
2023/03/08 01:00:33;;;;;;;42.67;29.20;;;;;;;8.85;79.46;98721.16;5098119;28;20172;-54
2023/03/08 01:03:01;;;;;;;41.73;28.70;;;;;;;8.87;79.25;98723.75;5108628;28;20238;-54
2023/03/08 01:05:27;;;;;;;46.97;28.73;;;;;;;8.88;79.35;98715.22;5118639;28;20200;-54
2023/03/08 01:07:55;;;;;;;41.40;28.20;;;;;;;8.87;79.39;98716.06;5118386;28;20197;-54
2023/03/08 01:10:21;;;;;;;37.43;28.07;;;;;;;8.82;79.35;98718.56;5118586;28;20185;-54
2023/03/08 01:12:48;;;;;;;48.43;28.80;;;;;;;8.82;79.45;98721.13;5118502;28;20197;-54
2023/03/08 01:15:15;;;;;;;37.20;26.80;;;;;;;8.80;79.72;98712.56;5118328;28;20181;-54
2023/03/08 01:17:42;;;;;;;42.70;28.53;;;;;;;8.81;79.46;98711.75;5118261;28;20179;-54
2023/03/08 01:20:11;;;;;;;38.80;27.47;;;;;;;8.64;79.62;98681.66;5118252;28;20167;-54
2023/03/08 01:22:38;;;;;;;40.30;28.93;;;;;;;8.80;79.72;98719.41;5118129;28;20205;-54
2023/03/08 01:25:05;;;;;;;38.40;26.97;;;;;;;8.73;80.04;98717.63;5118009;28;20171;-54
2023/03/08 01:27:32;;;;;;;37.60;28.13;;;;;;;8.67;80.23;98723.53;5118083;28;20195;-53
2023/03/08 01:29:59;;;;;;;45.53;28.60;;;;;;;8.59;80.20;98707.22;5118021;28;20167;-54
2023/03/08 01:32:26;;;;;;;42.63;30.47;;;;;;;8.60;80.09;98720.88;5118191;28;20167;-54
2023/03/08 01:34:53;;;;;;;39.90;28.10;;;;;;;8.51;80.67;98716.53;5112226;28;20193;-55
2023/03/08 01:37:21;;;;;;;41.50;28.47;;;;;;;8.42;80.78;98706.16;5097161;28;20172;-54
2023/03/08 01:39:47;;;;;;;42.37;28.00;;;;;;;8.42;80.92;98721.53;5097809;28;20242;-55
2023/03/08 01:42:14;;;;;;;38.50;28.60;;;;;;;8.28;81.10;98721.34;5097478;28;20230;-53
2023/03/08 01:44:53;;;;;;;42.00;28.20;;;;;;;8.21;81.42;98713.56;5097761;28;20167;-54
2023/03/08 01:47:21;;;;;;;42.93;28.40;;;;;;;8.14;81.75;98722.84;5097658;28;20190;-54
2023/03/08 01:49:48;;;;;;;41.57;28.53;;;;;;;8.07;82.41;98722.75;5097691;28;20172;-54
2023/03/08 01:52:20;;;;;;;40.93;28.77;;;;;;;8.06;82.44;98731.25;5097542;28;20251;-54
2023/03/08 01:54:51;;;;;;;38.17;28.53;;;;;;;8.02;82.57;98732.91;5097758;28;20168;-54
2023/03/08 01:57:23;;;;;;;41.77;28.37;;;;;;;8.04;82.40;98738.06;5097684;28;20168;-59
2023/03/08 01:59:51;;;;;;;42.80;30.10;;;;;;;8.04;82.27;98730.38;5097637;28;20168;-54
2023/03/08 02:02:22;;;;;;;39.50;31.58;;;;;;;8.01;82.65;98730.31;5097160;28;20429;-54
2023/03/08 02:04:49;;;;;;;39.83;30.13;;;;;;;8.03;82.69;98726.09;5097430;28;20171;-54
2023/03/08 02:07:16;;;;;;;42.70;28.07;;;;;;;7.85;82.62;98700.25;5097398;28;20168;-53
2023/03/08 02:09:44;;;;;;;41.77;28.67;;;;;;;7.97;83.07;98721.75;5097536;28;20175;-55
2023/03/08 02:12:13;;;;;;;35.07;27.90;;;;;;;7.94;82.66;98726.81;5097452;28;20183;-54
2023/03/08 02:14:42;;;;;;;43.10;28.70;;;;;;;7.94;82.65;98718.31;5097524;28;20198;-54
2023/03/08 02:17:09;;;;;;;38.13;26.33;;;;;;;7.85;83.07;98718.16;5097547;28;20168;-54
2023/03/08 02:19:43;;;;;;;34.87;26.47;;;;;;;7.86;82.75;98723.28;5097745;28;20176;-54
2023/03/08 02:22:12;;;;;;;36.27;26.03;;;;;;;7.84;82.75;98716.44;5097160;28;20258;-54
2023/03/08 02:24:40;;;;;;;39.33;26.43;;;;;;;7.81;82.77;98718.94;5093338;28;20227;-54
2023/03/08 02:27:11;;;;;;;35.27;25.83;;;;;;;7.79;82.59;98720.63;5087272;28;20192;-54
2023/03/08 02:29:38;;;;;;;40.40;27.73;;;;;;;7.76;83.06;98721.44;5091174;28;20167;-54
2023/03/08 02:32:05;;;;;;;38.60;27.53;;;;;;;7.68;83.46;98702.56;5095060;28;20186;-55
2023/03/08 02:34:32;;;;;;;36.10;26.47;;;;;;;7.71;83.43;98716.28;5097311;28;20202;-54
2023/03/08 02:36:59;;;;;;;35.93;25.73;;;;;;;7.68;83.55;98723.91;5097266;28;20168;-54
2023/03/08 02:39:26;;;;;;;37.00;24.97;;;;;;;7.60;83.01;98733.16;5097192;28;20183;-54
2023/03/08 02:41:54;;;;;;;35.07;23.63;;;;;;;7.64;83.02;98745.13;5097115;28;20179;-54
2023/03/08 02:44:20;;;;;;;31.03;24.23;;;;;;;7.61;83.08;98747.63;5097057;28;20214;-54
2023/03/08 02:46:47;;;;;;;33.93;24.80;;;;;;;7.53;82.81;98746.66;5097185;28;20172;-55
2023/03/08 02:49:14;;;;;;;32.87;22.90;;;;;;;7.47;83.18;98743.97;5100483;28;20247;-54
2023/03/08 02:51:41;;;;;;;27.90;21.47;;;;;;;7.42;82.53;98743.06;5100651;28;20168;-54
2023/03/08 02:54:08;;;;;;;25.03;18.47;;;;;;;7.35;81.78;98746.34;5100843;28;20175;-54
2023/03/08 02:56:36;;;;;;;22.63;17.50;;;;;;;7.24;80.81;98742.75;5100716;28;20198;-54
2023/03/08 02:59:04;;;;;;;21.13;17.23;;;;;;;7.18;80.67;98749.44;5100605;28;20181;-54
2023/03/08 03:01:31;;;;;;;21.87;16.73;;;;;;;7.18;81.19;98754.56;5100632;28;20302;-54
2023/03/08 03:03:58;;;;;;;23.80;16.93;;;;;;;7.18;81.02;98749.44;5100408;28;20195;-54
2023/03/08 03:06:25;;;;;;;23.13;16.97;;;;;;;7.20;80.48;98748.63;5099939;28;20183;-54
2023/03/08 03:08:51;;;;;;;22.40;16.57;;;;;;;7.25;79.86;98752.13;5100480;28;20177;-54
2023/03/08 03:11:20;;;;;;;20.70;15.97;;;;;;;7.10;79.74;98737.41;5100472;28;20175;-54
2023/03/08 03:13:55;;;;;;;21.60;15.83;;;;;;;7.26;79.74;98760.66;5100473;28;20171;-55
2023/03/08 03:16:24;;;;;;;18.37;14.50;;;;;;;7.21;79.44;98765.69;5109573;28;20193;-54
2023/03/08 03:18:51;;;;;;;21.07;17.43;;;;;;;7.21;79.51;98755.47;5120835;28;20174;-54
2023/03/08 03:21:18;;;;;;;19.00;14.97;;;;;;;7.19;79.77;98757.16;5120590;28;20174;-54
2023/03/08 03:23:45;;;;;;;23.80;16.07;;;;;;;7.20;79.43;98761.41;5120535;28;20202;-54
2023/03/08 03:26:16;;;;;;;19.73;15.47;;;;;;;7.14;79.80;98756.22;5120464;28;20175;-54
2023/03/08 03:28:43;;;;;;;21.83;14.57;;;;;;;6.50;79.72;98644.41;5120394;28;20207;-55
2023/03/08 03:31:12;;;;;;;22.65;17.48;;;;;;;7.17;79.30;98756.25;5120028;28;20418;-54
2023/03/08 03:33:40;;;;;;;22.60;14.80;;;;;;;7.23;78.91;98765.72;5120384;28;20190;-54
2023/03/08 03:36:10;;;;;;;19.40;16.13;;;;;;;7.20;79.06;98763.13;5120231;28;20187;-55
2023/03/08 03:38:37;;;;;;;20.97;15.93;;;;;;;6.95;79.52;98733.72;5120109;28;20183;-54
2023/03/08 03:41:06;;;;;;;19.93;15.23;;;;;;;7.03;79.87;98758.56;5120091;28;20171;-54
2023/03/08 03:43:33;;;;;;;21.60;15.63;;;;;;;7.04;79.32;98767.06;5119907;28;20194;-54
2023/03/08 03:46:02;;;;;;;20.43;15.00;;;;;;;7.05;79.61;98773.91;5120021;28;20197;-54
2023/03/08 03:48:29;;;;;;;22.40;16.33;;;;;;;6.92;79.90;98772.81;5119943;28;20193;-54
2023/03/08 03:50:59;;;;;;;23.23;16.17;;;;;;;6.94;80.24;98783.94;5119905;28;20194;-54
2023/03/08 03:53:27;;;;;;;21.03;16.50;;;;;;;6.87;80.40;98783.75;5119847;28;20177;-54
2023/03/08 03:55:54;;;;;;;24.83;17.27;;;;;;;6.87;80.80;98778.66;5119759;28;20175;-53
2023/03/08 03:58:21;;;;;;;22.47;16.20;;;;;;;6.92;80.33;98789.84;5119750;28;20178;-54
2023/03/08 04:00:48;;;;;;;22.57;17.67;;;;;;;6.88;80.12;98790.59;5119027;28;20184;-53
2023/03/08 04:03:15;;;;;;;24.90;17.63;;;;;;;6.84;80.72;98793.94;5119638;28;20221;-54
2023/03/08 04:05:42;;;;;;;24.13;17.67;;;;;;;6.68;81.42;98799.56;5119618;28;20201;-54
2023/03/08 04:08:10;;;;;;;26.40;17.97;;;;;;;6.68;81.46;98795.31;5119522;28;20182;-53
2023/03/08 04:10:36;;;;;;;23.93;19.13;;;;;;;6.66;81.48;98798.66;5119492;28;20170;-54
2023/03/08 04:13:03;;;;;;;28.00;18.87;;;;;;;6.61;81.85;98801.13;5119283;28;20174;-54
2023/03/08 04:15:30;;;;;;;27.17;18.90;;;;;;;6.58;82.22;98806.16;5119414;28;20242;-54
2023/03/08 04:17:57;;;;;;;27.73;18.70;;;;;;;6.23;82.34;98743.34;5119266;28;20186;-53
2023/03/08 04:20:24;;;;;;;25.90;18.73;;;;;;;6.61;81.71;98802.81;5119174;28;20196;-54
2023/03/08 04:22:51;;;;;;;26.03;18.27;;;;;;;6.58;82.04;98808.72;5119083;28;20202;-54
2023/03/08 04:25:19;;;;;;;28.90;19.97;;;;;;;6.58;82.84;98818.06;5118939;28;20186;-54
2023/03/08 04:27:46;;;;;;;26.17;20.30;;;;;;;6.58;82.46;98824.03;5118860;28;20241;-55
2023/03/08 04:30:13;;;;;;;25.33;19.57;;;;;;;6.63;82.03;98824.13;5119017;28;20227;-55
2023/03/08 04:32:40;;;;;;;26.10;18.90;;;;;;;6.61;81.69;98825.78;5118971;28;20170;-54
2023/03/08 04:35:07;;;;;;;24.10;18.10;;;;;;;6.63;81.84;98824.13;5118903;28;20171;-54
2023/03/08 04:37:35;;;;;;;25.50;18.57;;;;;;;6.65;82.33;98827.59;5119009;28;20196;-54
2023/03/08 04:40:05;;;;;;;24.10;18.40;;;;;;;6.61;81.82;98820.69;5118818;28;20178;-54
2023/03/08 04:42:34;;;;;;;27.27;18.17;;;;;;;6.57;82.26;98813.78;5118855;28;20201;-53
2023/03/08 04:45:00;;;;;;;25.10;17.63;;;;;;;6.60;81.89;98826.59;5118669;28;20204;-53
2023/03/08 04:47:27;;;;;;;22.90;16.37;;;;;;;6.54;81.19;98825.66;5118646;28;20198;-54
2023/03/08 04:49:54;;;;;;;27.40;17.37;;;;;;;6.48;81.29;98817.84;5118509;28;20175;-54
2023/03/08 04:52:20;;;;;;;20.70;16.03;;;;;;;6.43;81.13;98813.50;5118492;28;20178;-54
2023/03/08 04:54:47;;;;;;;22.10;17.37;;;;;;;6.39;81.81;98812.59;5118273;28;20194;-54
2023/03/08 04:57:14;;;;;;;28.37;17.70;;;;;;;6.40;81.98;98811.75;5118450;28;20191;-54
2023/03/08 04:59:43;;;;;;;24.17;16.90;;;;;;;6.41;81.40;98820.25;5118396;28;20199;-54
2023/03/08 05:02:10;;;;;;;22.47;16.43;;;;;;;6.32;82.35;98817.50;5118294;28;20170;-54
2023/03/08 05:04:37;;;;;;;23.10;15.50;;;;;;;6.33;81.28;98820.09;5118217;28;20198;-54
2023/03/08 05:07:03;;;;;;;21.67;16.70;;;;;;;6.36;81.62;98826.97;5118357;28;20187;-54
2023/03/08 05:09:30;;;;;;;23.23;16.53;;;;;;;6.41;81.81;98831.31;5118180;28;20173;-54
2023/03/08 05:11:58;;;;;;;21.53;16.70;;;;;;;6.31;82.13;98813.25;5117275;28;20185;-55
2023/03/08 05:14:25;;;;;;;27.53;18.37;;;;;;;6.33;82.82;98825.19;5118285;28;20174;-53
2023/03/08 05:16:56;;;;;;;22.17;18.53;;;;;;;6.37;81.54;98832.06;5118134;28;20171;-54
2023/03/08 05:19:23;;;;;;;25.13;18.00;;;;;;;6.03;81.86;98763.31;5118169;28;20169;-54
2023/03/08 05:21:49;;;;;;;22.80;16.77;;;;;;;6.38;81.58;98822.75;5118174;28;20192;-54
2023/03/08 05:24:16;;;;;;;20.00;15.63;;;;;;;6.49;81.36;98832.34;5118014;28;20227;-54
2023/03/08 05:26:43;;;;;;;19.13;14.33;;;;;;;6.57;80.87;98831.66;5117981;28;20181;-55
2023/03/08 05:29:10;;;;;;;15.43;13.00;;;;;;;6.62;80.51;98845.38;5117822;28;20176;-55
2023/03/08 05:31:38;;;;;;;20.60;14.63;;;;;;;6.71;79.91;98840.44;5117678;28;20172;-55
2023/03/08 05:34:06;;;;;;;23.13;14.73;;;;;;;6.77;79.83;98830.38;5117559;28;20174;-55
2023/03/08 05:36:33;;;;;;;21.37;14.57;;;;;;;6.86;78.90;98828.88;5117701;28;20178;-55
2023/03/08 05:39:00;;;;;;;23.47;15.60;;;;;;;6.98;78.39;98839.31;5117767;28;20253;-54
2023/03/08 05:41:26;;;;;;;22.23;16.57;;;;;;;7.02;78.54;98825.78;5117740;28;20174;-55
2023/03/08 05:43:53;;;;;;;25.83;15.67;;;;;;;7.12;78.36;98839.59;5117628;28;20215;-55
2023/03/08 05:46:20;;;;;;;23.17;16.00;;;;;;;7.22;78.07;98848.31;5117533;28;20208;-54
2023/03/08 05:48:47;;;;;;;20.30;15.33;;;;;;;7.26;77.39;98845.81;5117749;28;20174;-54
2023/03/08 05:51:17;;;;;;;22.33;15.67;;;;;;;7.29;77.60;98845.88;5117613;28;20214;-55
2023/03/08 05:53:44;;;;;;;23.10;16.93;;;;;;;7.35;77.37;98858.78;5117612;28;20186;-54
2023/03/08 05:56:12;;;;;;;22.63;15.57;;;;;;;7.39;76.31;98867.38;5117471;28;20171;-54
2023/03/08 05:58:40;;;;;;;18.03;14.93;;;;;;;7.39;75.94;98867.38;5117315;28;20181;-54
2023/03/08 06:01:12;;;;;;;18.80;14.17;;;;;;;7.42;75.98;98873.38;5117368;28;20174;-54
2023/03/08 06:03:39;;;;;;;22.90;15.47;;;;;;;7.44;75.94;98870.88;5117328;28;20232;-54
2023/03/08 06:06:06;;;;;;;24.20;17.10;;;;;;;7.47;75.92;98876.03;5117507;28;20174;-54
2023/03/08 06:08:34;;;;;;;20.27;14.73;;;;;;;7.49;75.42;98885.47;5117341;28;20174;-54
2023/03/08 06:11:01;;;;;;;17.27;14.07;;;;;;;7.53;74.66;98883.78;5117169;28;20219;-54
2023/03/08 06:13:27;;;;;;;18.20;14.67;;;;;;;7.52;75.01;98892.31;5116868;28;20178;-54
2023/03/08 06:15:55;;;;;;;18.50;15.40;;;;;;;7.53;75.24;98894.03;5117121;28;20175;-54
2023/03/08 06:18:23;;;;;;;28.90;17.07;;;;;;;7.59;75.23;98896.69;5117249;28;20170;-54
2023/03/08 06:20:57;;;;;;;21.67;14.27;;;;;;;7.66;74.71;98886.59;5117119;28;20197;-54
2023/03/08 06:23:24;;;;;;;20.13;13.20;;;;;;;7.67;73.66;98883.22;5119204;28;20185;-54
2023/03/08 06:25:52;;;;;;;18.60;14.48;;;;;;;7.76;73.40;98894.44;5120427;28;20420;-55
2023/03/08 06:28:19;;;;;;;17.47;12.80;;;;;;;7.84;73.04;98890.31;5120508;28;20244;-54
2023/03/08 06:30:48;;;;;;;18.90;12.97;;;;;;;7.95;72.50;98886.25;5120938;28;20284;-54
2023/03/08 06:33:15;;;;;;;20.93;13.37;;;;;;;7.90;72.15;98859.75;5121020;28;20174;-55
2023/03/08 06:35:42;;;;;;;17.93;12.30;;;;;;;8.18;71.88;98898.59;5120891;28;20195;-55
2023/03/08 06:38:09;;;;;;;15.03;11.80;;;;;;;8.36;71.25;98899.72;5120829;28;20178;-53
2023/03/08 06:40:36;;;;;;;19.33;13.47;;;;;;;8.48;70.26;98908.47;5120762;28;20171;-58
2023/03/08 06:43:04;;;;;;;18.87;12.87;;;;;;;8.57;69.72;98916.28;5120309;28;20183;-54
2023/03/08 06:45:32;;;;;;;22.08;15.38;;;;;;;8.61;69.75;98930.00;5119996;28;20435;-54
2023/03/08 06:48:00;;;;;;;21.90;14.23;;;;;;;8.77;69.55;98937.91;5102739;28;20255;-55
2023/03/08 06:50:26;;;;;;;17.50;12.07;;;;;;;8.92;68.73;98933.84;5097356;28;20251;-55
2023/03/08 06:52:54;;;;;;;18.33;13.57;;;;;;;9.03;67.87;98935.72;5099854;28;20183;-54
2023/03/08 06:55:21;;;;;;;17.43;12.10;;;;;;;9.05;66.91;98940.84;5100297;28;20164;-55
2023/03/08 06:57:48;;;;;;;19.40;13.47;;;;;;;9.12;66.28;98938.38;5100079;28;20176;-54
2023/03/08 07:00:17;;;;;;;20.60;13.03;;;;;;;9.24;65.77;98940.25;5118007;28;20187;-53
2023/03/08 07:02:44;;;;;;;19.10;14.10;;;;;;;9.29;65.50;98941.16;5120609;28;20202;-54
2023/03/08 07:05:11;;;;;;;19.63;13.00;;;;;;;9.46;65.20;98950.78;5113128;28;20196;-53
2023/03/08 07:07:38;;;;;;;17.33;13.33;;;;;;;9.59;64.78;98951.78;5080158;28;20176;-54
2023/03/08 07:10:06;;;;;;;16.27;12.87;;;;;;;9.75;64.24;98952.81;5080271;28;20180;-54
2023/03/08 07:12:38;;;;;;;18.63;12.27;;;;;;;9.84;64.06;98953.78;5080251;28;20168;-54
2023/03/08 07:15:07;;;;;;;13.50;10.93;;;;;;;9.95;62.46;98951.31;5090620;28;20189;-54
2023/03/08 07:17:35;;;;;;;13.37;10.20;;;;;;;9.95;61.67;98951.31;5097503;28;20209;-54
2023/03/08 07:20:04;;;;;;;19.63;11.57;;;;;;;10.11;61.38;98962.59;5099951;28;20199;-54
2023/03/08 07:22:31;;;;;;;17.67;11.47;;;;;;;10.16;61.74;98950.69;5100175;28;20202;-54
2023/03/08 07:24:58;;;;;;;12.83;10.33;;;;;;;10.36;60.71;98951.72;5099927;28;20199;-53
2023/03/08 07:27:25;;;;;;;11.50;9.70;;;;;;;10.42;59.54;98947.50;5099896;28;20203;-55
2023/03/08 07:29:52;;;;;;;15.17;10.80;;;;;;;10.50;59.35;98948.41;5099919;28;20172;-54
2023/03/08 07:32:19;;;;;;;15.23;11.40;;;;;;;10.65;58.89;98947.69;5099806;28;20174;-54
2023/03/08 07:34:47;;;;;;;15.47;10.80;;;;;;;10.80;58.77;98952.03;5098756;28;20196;-54
2023/03/08 07:37:14;;;;;;;13.90;10.87;;;;;;;10.84;58.01;98952.09;5099650;28;20176;-54
2023/03/08 07:39:41;;;;;;;13.03;9.57;;;;;;;10.87;57.68;98954.69;5099820;28;20195;-55
2023/03/08 07:42:08;;;;;;;12.90;9.80;;;;;;;10.93;57.96;98953.84;5097663;28;20190;-55
2023/03/08 07:44:35;;;;;;;16.33;10.13;;;;;;;11.00;57.45;98946.19;5099041;28;20226;-54
2023/03/08 07:47:02;;;;;;;13.35;11.05;;;;;;;11.11;57.19;98947.09;5095672;28;20441;-55
2023/03/08 07:49:29;;;;;;;17.80;11.50;;;;;;;11.22;56.83;98950.59;5099681;28;20183;-55
2023/03/08 07:51:58;;;;;;;18.27;11.50;;;;;;;11.24;57.21;98943.72;5099484;28;20172;-54
2023/03/08 07:54:25;;;;;;;18.87;11.97;;;;;;;11.33;56.96;98950.63;5099407;28;20168;-54
2023/03/08 07:56:52;;;;;;;20.33;12.93;;;;;;;11.41;57.53;98946.38;5099282;28;20172;-55
2023/03/08 07:59:19;;;;;;;21.97;12.90;;;;;;;11.36;57.11;98901.78;5096883;28;20180;-54
2023/03/08 08:01:46;;;;;;;17.23;12.70;;;;;;;11.63;56.68;98937.88;5098732;28;20172;-54
2023/03/08 08:04:13;;;;;;;16.10;12.27;;;;;;;11.71;55.99;98941.38;5098988;28;20245;-54
2023/03/08 08:06:40;;;;;;;15.43;12.57;;;;;;;11.80;55.15;98938.81;5098920;28;20195;-55
2023/03/08 08:09:13;;;;;;;14.67;11.97;;;;;;;11.84;54.88;98942.25;5105521;28;20201;-55
2023/03/08 08:11:39;;;;;;;16.90;11.77;;;;;;;11.88;55.09;98938.84;5107809;28;20194;-55
2023/03/08 08:14:06;;;;;;;15.37;11.27;;;;;;;11.87;54.31;98938.84;5098622;28;20171;-55
2023/03/08 08:16:33;;;;;;;16.13;12.10;;;;;;;11.90;54.81;98933.69;5098823;28;20176;-54
2023/03/08 08:19:00;;;;;;;13.17;11.57;;;;;;;11.57;54.64;98858.09;5098469;28;20183;-55
2023/03/08 08:21:27;;;;;;;18.67;12.40;;;;;;;12.18;53.56;98930.28;5098612;28;20195;-55
2023/03/08 08:23:56;;;;;;;19.43;12.17;;;;;;;12.25;54.01;98930.28;5098779;28;20198;-54
2023/03/08 08:26:24;;;;;;;16.23;12.00;;;;;;;12.46;52.96;98931.16;5098698;28;20175;-55
2023/03/08 08:28:54;;;;;;;15.77;12.00;;;;;;;12.58;52.36;98932.00;5098460;28;20498;-55
2023/03/08 08:31:22;;;;;;;17.90;12.10;;;;;;;12.37;51.90;98883.94;5097995;28;20172;-55
2023/03/08 08:33:49;;;;;;;22.63;11.80;;;;;;;12.81;51.67;98934.56;5102649;28;20175;-55
2023/03/08 08:36:17;;;;;;;12.77;9.87;;;;;;;12.86;50.99;98944.00;5118915;28;20235;-55
2023/03/08 08:38:45;;;;;;;12.97;10.57;;;;;;;12.94;50.65;98951.72;5118658;28;20163;-55
2023/03/08 08:41:14;;;;;;;15.37;11.50;;;;;;;13.07;50.16;98943.13;5118675;28;20212;-55
2023/03/08 08:43:44;;;;;;;17.50;11.63;;;;;;;13.16;50.53;98952.56;5118590;28;20198;-55
2023/03/08 08:46:11;;;;;;;17.90;12.40;;;;;;;13.27;50.18;98954.25;5094356;28;20263;-55
2023/03/08 08:48:38;;;;;;;12.97;10.73;;;;;;;13.34;49.81;98955.94;5097810;28;20244;-55
2023/03/08 08:51:06;;;;;;;17.87;11.50;;;;;;;13.49;49.74;98949.84;5087544;28;20186;-55
2023/03/08 08:53:34;;;;;;;14.47;10.57;;;;;;;13.55;49.52;98945.53;5077876;28;20174;-55
2023/03/08 08:56:10;;;;;;;17.37;9.83;;;;;;;13.67;48.88;98943.75;5077842;28;20175;-55
2023/03/08 08:58:37;;;;;;;9.87;8.03;;;;;;;13.80;48.37;98945.41;5077671;28;20163;-55
2023/03/08 09:01:05;;;;;;;12.43;8.73;;;;;;;13.97;48.55;98939.28;5089044;28;20216;-55
2023/03/08 09:03:32;;;;;;;8.70;7.73;;;;;;;14.03;48.03;98936.66;5097014;28;20183;-55
2023/03/08 09:05:58;;;;;;;10.63;6.97;;;;;;;14.17;47.52;98934.00;5095840;28;20238;-55
2023/03/08 09:08:25;;;;;;;10.80;8.27;;;;;;;14.16;47.76;98937.44;5079554;28;20180;-55
2023/03/08 09:10:52;;;;;;;8.60;6.43;;;;;;;14.21;47.44;98922.75;5086679;28;20198;-56
2023/03/08 09:13:19;;;;;;;7.67;5.60;;;;;;;14.23;46.20;98917.59;5095025;28;20181;-55
2023/03/08 09:15:45;;;;;;;9.20;6.70;;;;;;;14.25;46.06;98900.34;5097069;28;20180;-55
2023/03/08 09:18:14;;;;;;;7.60;6.60;;;;;;;14.39;46.28;98908.88;5116014;28;20170;-55
2023/03/08 09:20:40;;;;;;;6.50;5.77;;;;;;;14.47;45.56;98896.75;5117519;28;20186;-56
2023/03/08 09:23:08;;;;;;;7.97;6.13;;;;;;;14.64;44.99;98894.88;5111380;28;20181;-55
2023/03/08 09:25:35;;;;;;;8.50;5.60;;;;;;;14.83;43.89;98898.13;5097268;28;20220;-54
2023/03/08 09:28:02;;;;;;;9.33;5.77;;;;;;;14.91;44.06;98904.94;5096957;28;20214;-55
2023/03/08 09:30:31;;;;;;;9.23;7.40;;;;;;;14.96;44.20;98886.75;5096274;28;20178;-55
2023/03/08 09:32:58;;;;;;;9.87;6.73;;;;;;;15.00;44.13;98886.69;5096707;28;20224;-56
2023/03/08 09:35:26;;;;;;;8.00;6.17;;;;;;;15.19;43.40;98900.31;5096745;28;20213;-55
2023/03/08 09:37:53;;;;;;;5.10;4.60;;;;;;;15.28;42.16;98890.69;5096765;28;20198;-55
2023/03/08 09:40:23;;;;;;;6.17;4.87;;;;;;;15.47;41.79;98893.91;5096070;28;20205;-56
2023/03/08 09:42:50;;;;;;;7.10;5.50;;;;;;;15.59;41.92;98898.09;5094039;28;20169;-56
2023/03/08 09:45:22;;;;;;;9.60;4.90;;;;;;;15.73;41.27;98898.75;5096729;28;20209;-55
2023/03/08 09:47:53;;;;;;;7.00;5.67;;;;;;;15.89;40.95;98900.25;5093330;28;20214;-55
2023/03/08 09:50:35;;;;;;;6.93;5.53;;;;;;;16.04;40.01;98894.81;5094852;28;20216;-55
2023/03/08 09:53:11;;;;;;;8.70;5.77;;;;;;;16.15;40.35;98897.28;5093966;28;20182;-55
2023/03/08 09:55:45;;;;;;;6.47;5.73;;;;;;;16.31;40.22;98901.31;5076942;28;20241;-54
2023/03/08 09:58:20;;;;;;;5.67;5.13;;;;;;;16.47;39.75;98900.19;5092639;28;20167;-54
2023/03/08 10:00:46;;;;;;;10.97;6.40;;;;;;;16.48;39.40;98870.78;5089581;28;20202;-55
2023/03/08 10:03:39;;;;;;;10.63;5.87;;;;;;;16.76;39.03;98882.41;5102439;28;20167;-55
2023/03/08 10:06:19;;;;;;;6.50;5.73;;;;;;;16.91;39.09;98887.31;5098393;28;20195;-55
2023/03/08 10:08:53;;;;;;;7.30;6.27;;;;;;;17.05;39.04;98890.50;5096134;28;20318;-55
2023/03/08 10:11:29;;;;;;;7.43;5.90;;;;;;;16.96;39.11;98864.72;5082850;28;20174;-55
2023/03/08 10:14:02;;;;;;;5.77;5.17;;;;;;;17.18;38.20;98874.66;5092544;28;20179;-55
2023/03/08 10:16:33;;;;;;;6.13;5.40;;;;;;;17.35;37.85;98886.44;5098509;28;20172;-55
2023/03/08 10:19:05;;;;;;;10.43;6.47;;;;;;;17.40;37.54;98871.59;5102598;28;20175;-55
2023/03/08 10:21:37;;;;;;;6.77;5.83;;;;;;;16.48;37.21;98699.66;5102581;28;20283;-55
2023/03/08 10:24:15;;;;;;;10.93;5.37;;;;;;;17.66;36.16;98873.69;5102316;28;20167;-55
2023/03/08 10:26:43;;;;;;;5.73;4.63;;;;;;;17.63;35.22;98878.94;5099876;28;20207;-55
2023/03/08 10:29:11;;;;;;;6.70;5.90;;;;;;;17.73;35.65;98867.44;5102307;28;20274;-55
2023/03/08 10:31:39;;;;;;;5.93;4.93;;;;;;;17.88;34.84;98866.25;5102268;28;20171;-55
2023/03/08 10:34:13;;;;;;;9.60;5.30;;;;;;;17.98;34.76;98858.22;5102649;28;20194;-55
2023/03/08 10:36:51;;;;;;;6.20;5.20;;;;;;;18.09;34.00;98857.94;5089235;28;20175;-56
2023/03/08 10:39:19;;;;;;;5.00;4.53;;;;;;;18.06;32.32;98848.47;5102785;28;20175;-57
2023/03/08 10:41:49;;;;;;;6.73;6.13;;;;;;;18.08;32.77;98849.28;5101846;28;20195;-56
2023/03/08 10:44:28;;;;;;;6.33;4.10;;;;;;;18.08;32.41;98843.22;5099117;28;20168;-56
2023/03/08 10:46:55;;;;;;;6.83;4.20;;;;;;;18.18;32.17;98844.72;5099447;28;20227;-55
2023/03/08 10:49:24;;;;;;;6.40;4.53;;;;;;;18.15;31.86;98840.47;5107571;28;20191;-55
2023/03/08 10:51:59;;;;;;;3.90;3.50;;;;;;;17.82;31.98;98819.63;5103054;28;20203;-55
2023/03/08 10:54:27;;;;;;;4.43;4.03;;;;;;;17.75;32.56;98831.88;5102381;28;20171;-56
2023/03/08 10:56:57;;;;;;;7.68;4.43;;;;;;;17.49;32.61;98821.22;5097678;28;20443;-54
2023/03/08 10:59:31;;;;;;;5.37;4.10;;;;;;;17.64;32.78;98828.69;5098623;28;20233;-55
2023/03/08 11:02:00;;;;;;;6.23;3.40;;;;;;;17.79;32.22;98819.69;5090457;28;20207;-55
2023/03/08 11:04:28;;;;;;;3.33;2.80;;;;;;;17.73;31.30;98814.63;5101356;28;20209;-55
2023/03/08 11:06:57;;;;;;;6.13;3.53;;;;;;;17.71;31.86;98806.88;5099997;28;20198;-54
2023/03/08 11:09:27;;;;;;;5.57;3.80;;;;;;;17.90;31.68;98802.09;5100147;28;20182;-55
2023/03/08 11:11:54;;;;;;;4.33;3.83;;;;;;;18.02;32.11;98802.63;5098749;28;20193;-56
2023/03/08 11:14:21;;;;;;;5.90;4.00;;;;;;;18.14;31.84;98802.34;5098699;28;20205;-56
2023/03/08 11:16:54;;;;;;;8.30;4.30;;;;;;;18.17;31.39;98797.06;5098849;28;20192;-55
2023/03/08 11:19:36;;;;;;;5.80;3.90;;;;;;;18.11;31.80;98785.97;5098746;28;20175;-55
2023/03/08 11:22:18;;;;;;;6.07;4.20;;;;;;;18.05;31.72;98788.69;5097646;28;20163;-55
2023/03/08 11:25:02;;;;;;;7.37;4.83;;;;;;;18.10;32.08;98782.50;5097883;28;20172;-54
2023/03/08 11:27:45;;;;;;;5.07;4.30;;;;;;;18.08;31.50;98784.28;5096639;28;20226;-58
2023/03/08 11:30:22;;;;;;;4.10;3.70;;;;;;;17.99;31.50;98763.72;5098545;28;20168;-55
2023/03/08 11:33:08;;;;;;;3.67;3.30;;;;;;;18.06;31.53;98765.28;5096695;28;20187;-56